createdAt,value
2023-01-20T00:00:20.574Z,96.60
2023-01-20T00:02:47.284Z,96.60
2023-01-20T00:05:14.379Z,96.80
2023-01-20T00:07:41.170Z,96.70
2023-01-20T00:10:08.672Z,96.80
2023-01-20T00:12:35.544Z,96.70
2023-01-20T00:15:02.164Z,96.70
2023-01-20T00:17:29.154Z,96.70
2023-01-20T00:19:55.962Z,96.60
2023-01-20T00:22:22.699Z,96.70
2023-01-20T00:24:49.460Z,96.60
2023-01-20T00:27:18.409Z,96.60
2023-01-20T00:29:46.742Z,96.60
2023-01-20T00:32:13.612Z,96.60
2023-01-20T00:34:40.281Z,96.60
2023-01-20T00:37:06.929Z,96.60
2023-01-20T00:39:33.624Z,96.80
2023-01-20T00:42:00.318Z,96.70
2023-01-20T00:44:26.975Z,96.70
2023-01-20T00:46:53.667Z,97.40
2023-01-20T00:49:20.564Z,97.00
2023-01-20T00:51:47.210Z,96.80
2023-01-20T00:54:14.247Z,96.70
2023-01-20T00:56:40.872Z,96.90
2023-01-20T00:59:09.217Z,96.70
2023-01-20T01:01:35.964Z,96.70
2023-01-20T01:04:02.741Z,96.70
2023-01-20T01:06:29.383Z,96.70
2023-01-20T01:08:57.034Z,96.70
2023-01-20T01:11:23.692Z,96.70
2023-01-20T01:13:50.346Z,96.70
2023-01-20T01:16:17.432Z,96.60
2023-01-20T01:18:44.257Z,96.60
2023-01-20T01:21:14.528Z,96.70
2023-01-20T01:23:41.615Z,96.60
2023-01-20T01:26:09.366Z,96.70
2023-01-20T01:28:36.466Z,96.60
2023-01-20T01:31:04.578Z,96.60
2023-01-20T01:33:32.045Z,96.80
2023-01-20T01:36:01.008Z,96.80
2023-01-20T01:38:28.972Z,96.70
2023-01-20T01:40:56.348Z,96.60
2023-01-20T01:43:32.375Z,96.60
2023-01-20T01:45:59.760Z,96.70
2023-01-20T01:48:40.919Z,96.60
2023-01-20T01:51:10.041Z,96.60
2023-01-20T01:53:47.665Z,96.60
2023-01-20T01:56:15.885Z,96.60
2023-01-20T01:58:46.373Z,96.80
2023-01-20T02:01:13.438Z,96.90
2023-01-20T02:03:58.828Z,96.80
2023-01-20T02:06:31.601Z,96.70
2023-01-20T02:08:59.236Z,96.70
2023-01-20T02:11:26.071Z,96.70
2023-01-20T02:13:52.924Z,96.60
2023-01-20T02:16:51.775Z,96.60
2023-01-20T02:19:51.056Z,96.70
2023-01-20T02:22:45.096Z,96.60
2023-01-20T02:25:35.976Z,96.60
2023-01-20T02:28:34.987Z,96.60
2023-01-20T02:31:20.155Z,97.10
2023-01-20T02:34:16.781Z,96.80
2023-01-20T02:36:54.243Z,96.80
2023-01-20T02:39:48.849Z,96.80
2023-01-20T02:42:48.533Z,96.90
2023-01-20T02:45:18.111Z,97.00
2023-01-20T02:48:05.731Z,96.80
2023-01-20T02:50:39.747Z,96.80
2023-01-20T02:53:08.476Z,96.80
2023-01-20T02:55:46.357Z,96.70
2023-01-20T02:58:25.370Z,96.70
2023-01-20T03:00:57.852Z,96.70
2023-01-20T03:03:30.424Z,96.70
2023-01-20T03:06:01.840Z,96.60
2023-01-20T03:08:32.255Z,96.60
2023-01-20T03:11:04.828Z,96.70
2023-01-20T03:13:44.393Z,96.70
2023-01-20T03:16:17.920Z,97.00
2023-01-20T03:18:45.396Z,96.70
2023-01-20T03:21:13.607Z,96.80
2023-01-20T03:23:46.025Z,97.10
2023-01-20T03:26:14.664Z,96.70
2023-01-20T03:28:46.039Z,96.80
2023-01-20T03:31:27.475Z,96.80
2023-01-20T03:33:58.090Z,97.10
2023-01-20T03:36:28.175Z,97.10
2023-01-20T03:38:56.834Z,97.10
2023-01-20T03:41:23.474Z,97.10
2023-01-20T03:44:04.588Z,97.10
2023-01-20T03:46:40.068Z,97.00
2023-01-20T03:49:19.635Z,96.90
2023-01-20T03:52:15.813Z,96.80
2023-01-20T03:54:58.839Z,96.80
2023-01-20T03:57:32.203Z,96.80
2023-01-20T03:59:59.732Z,96.90
2023-01-20T04:02:28.130Z,96.80
2023-01-20T04:04:56.719Z,96.80
2023-01-20T04:07:26.163Z,96.70
2023-01-20T04:09:58.209Z,96.70
2023-01-20T04:12:24.827Z,96.70
2023-01-20T04:14:51.477Z,96.70
2023-01-20T04:17:18.423Z,96.70
2023-01-20T04:19:45.037Z,96.70
2023-01-20T04:22:21.916Z,96.80
2023-01-20T04:25:03.407Z,96.80
2023-01-20T04:27:30.130Z,96.70
2023-01-20T04:29:56.811Z,96.80
2023-01-20T04:32:23.516Z,96.80
2023-01-20T04:34:52.193Z,96.80
2023-01-20T04:37:19.876Z,96.80
2023-01-20T04:39:46.596Z,96.80
2023-01-20T04:42:13.469Z,96.80
2023-01-20T04:44:40.122Z,96.70
2023-01-20T04:47:06.802Z,96.80
2023-01-20T04:49:35.358Z,96.70
2023-01-20T04:52:03.815Z,96.80
2023-01-20T04:54:30.469Z,96.70
2023-01-20T04:56:57.148Z,96.70
2023-01-20T04:59:23.821Z,96.70
2023-01-20T05:01:50.708Z,96.70
2023-01-20T05:04:17.404Z,96.60
2023-01-20T05:06:44.941Z,96.70
2023-01-20T05:09:15.826Z,96.70
2023-01-20T05:11:43.357Z,96.70
2023-01-20T05:14:11.739Z,96.70
2023-01-20T05:16:38.480Z,96.90
2023-01-20T05:19:05.384Z,96.80
2023-01-20T05:21:32.055Z,96.70
2023-01-20T05:23:58.764Z,96.70
2023-01-20T05:26:26.266Z,96.70
2023-01-20T05:28:54.339Z,96.70
2023-01-20T05:31:21.250Z,96.70
2023-01-20T05:33:48.026Z,96.70
2023-01-20T05:36:14.825Z,96.90
2023-01-20T05:38:41.655Z,96.90
2023-01-20T05:41:09.908Z,96.80
2023-01-20T05:43:36.961Z,97.10
2023-01-20T05:46:04.533Z,96.70
2023-01-20T05:48:31.462Z,96.70
2023-01-20T05:50:58.430Z,96.70
2023-01-20T05:53:25.183Z,96.70
2023-01-20T05:56:00.263Z,96.70
2023-01-20T05:58:27.077Z,96.70
2023-01-20T06:00:53.718Z,96.70
2023-01-20T06:03:20.365Z,96.70
2023-01-20T06:05:49.435Z,96.80
2023-01-20T06:08:16.234Z,96.80
2023-01-20T06:10:42.904Z,96.80
2023-01-20T06:13:09.596Z,96.80
2023-01-20T06:15:36.268Z,96.80
2023-01-20T06:18:03.830Z,96.80
2023-01-20T06:20:30.517Z,96.80
2023-01-20T06:22:57.199Z,96.80
2023-01-20T06:25:24.086Z,96.90
2023-01-20T06:27:50.870Z,96.80
2023-01-20T06:30:17.910Z,96.80
2023-01-20T06:32:47.727Z,96.80
2023-01-20T06:35:15.291Z,96.80
2023-01-20T06:37:42.170Z,96.80
2023-01-20T06:40:09.554Z,96.80
2023-01-20T06:42:36.193Z,96.80
2023-01-20T06:45:03.061Z,96.90
2023-01-20T06:47:29.715Z,96.90
2023-01-20T06:49:56.384Z,96.80
2023-01-20T06:52:23.103Z,96.90
2023-01-20T06:54:49.844Z,96.90
2023-01-20T06:57:16.598Z,96.80
2023-01-20T06:59:43.288Z,96.80
2023-01-20T07:02:12.418Z,96.80
2023-01-20T07:04:39.245Z,96.80
2023-01-20T07:07:05.998Z,96.80
2023-01-20T07:09:32.877Z,96.80
2023-01-20T07:11:59.528Z,96.80
2023-01-20T07:14:26.179Z,96.80
2023-01-20T07:16:52.898Z,96.70
2023-01-20T07:19:19.589Z,96.70
2023-01-20T07:21:46.409Z,96.70
2023-01-20T07:24:13.147Z,96.80
2023-01-20T07:26:39.794Z,96.80
2023-01-20T07:29:06.541Z,96.90
2023-01-20T07:31:34.293Z,96.90
2023-01-20T07:34:01.255Z,96.80
2023-01-20T07:36:27.955Z,96.80
2023-01-20T07:38:54.795Z,97.00
2023-01-20T07:41:22.403Z,96.80
2023-01-20T07:43:51.221Z,96.70
2023-01-20T07:46:18.679Z,96.60
2023-01-20T07:48:45.752Z,97.00
2023-01-20T07:51:14.805Z,97.00
2023-01-20T07:53:46.548Z,97.10
2023-01-20T07:56:16.214Z,97.10
2023-01-20T07:58:45.169Z,96.90
2023-01-20T08:01:18.465Z,96.80
2023-01-20T08:03:45.953Z,96.70
2023-01-20T08:06:15.194Z,96.70
2023-01-20T08:08:41.851Z,96.90
2023-01-20T08:11:10.450Z,96.80
2023-01-20T08:13:37.312Z,96.80
2023-01-20T08:16:07.145Z,96.70
2023-01-20T08:18:35.275Z,96.60
2023-01-20T08:21:08.136Z,96.50
2023-01-20T08:23:35.974Z,96.50
2023-01-20T08:26:06.537Z,96.50
2023-01-20T08:28:35.237Z,96.60
2023-01-20T08:31:13.463Z,96.70
2023-01-20T08:33:44.457Z,96.60
2023-01-20T08:36:17.820Z,96.60
2023-01-20T08:38:45.513Z,96.70
2023-01-20T08:41:15.212Z,96.60
2023-01-20T08:43:42.089Z,96.60
2023-01-20T08:46:12.322Z,96.60
2023-01-20T08:48:40.536Z,96.50
2023-01-20T08:51:10.558Z,96.50
2023-01-20T08:53:37.529Z,96.50
2023-01-20T08:56:04.655Z,96.50
2023-01-20T08:58:31.557Z,96.60
2023-01-20T09:00:58.463Z,96.60
2023-01-20T09:03:25.601Z,96.80
2023-01-20T09:05:52.467Z,96.70
2023-01-20T09:08:20.100Z,96.80
2023-01-20T09:10:47.071Z,96.80
2023-01-20T09:13:13.874Z,96.90
2023-01-20T09:15:40.616Z,96.90
2023-01-20T09:18:07.361Z,96.90
2023-01-20T09:20:34.376Z,96.90
2023-01-20T09:23:02.939Z,97.10
2023-01-20T09:25:30.058Z,97.10
2023-01-20T09:28:00.989Z,97.10
2023-01-20T09:30:27.976Z,97.00
2023-01-20T09:32:56.471Z,97.10
2023-01-20T09:35:23.274Z,97.20
2023-01-20T09:38:08.798Z,97.20
2023-01-20T09:41:02.278Z,97.30
2023-01-20T09:44:06.739Z,97.40
2023-01-20T09:46:45.650Z,97.50
2023-01-20T09:50:04.190Z,97.40
2023-01-20T09:52:54.390Z,97.40
2023-01-20T09:55:53.205Z,97.50
2023-01-20T09:58:41.634Z,97.50
2023-01-20T10:01:21.246Z,97.60
2023-01-20T10:03:53.675Z,97.60
2023-01-20T10:06:26.316Z,97.60
2023-01-20T10:09:06.690Z,97.60
2023-01-20T10:11:40.314Z,97.70
2023-01-20T10:14:15.234Z,97.70
2023-01-20T10:16:45.513Z,97.70
2023-01-20T10:19:27.065Z,97.70
2023-01-20T10:22:06.940Z,97.60
2023-01-20T10:24:41.114Z,97.60
2023-01-20T10:27:07.780Z,97.70
2023-01-20T10:29:40.569Z,97.60
2023-01-20T10:32:33.629Z,97.70
2023-01-20T10:35:08.513Z,98.10
2023-01-20T10:37:36.112Z,98.10
2023-01-20T10:40:24.741Z,98.00
2023-01-20T10:42:57.342Z,98.10
2023-01-20T10:45:51.016Z,97.90
2023-01-20T10:48:37.018Z,98.20
2023-01-20T10:51:28.563Z,98.20
2023-01-20T10:54:14.348Z,98.40
2023-01-20T10:56:45.711Z,98.40
2023-01-20T10:59:17.875Z,98.40
2023-01-20T11:01:59.201Z,98.50
2023-01-20T11:04:35.984Z,98.40
2023-01-20T11:07:03.691Z,98.20
2023-01-20T11:09:37.197Z,98.40
2023-01-20T11:12:12.262Z,98.50
2023-01-20T11:14:39.039Z,98.60
2023-01-20T11:17:08.529Z,98.70
2023-01-20T11:19:56.740Z,98.60
2023-01-20T11:22:35.322Z,98.40
2023-01-20T11:25:04.178Z,97.90
2023-01-20T11:27:45.967Z,97.90
2023-01-20T11:30:32.317Z,97.70
2023-01-20T11:33:17.542Z,97.80
2023-01-20T11:36:04.488Z,98.20
2023-01-20T11:38:46.209Z,98.20
2023-01-20T11:41:23.804Z,98.20
2023-01-20T11:43:53.050Z,97.90
2023-01-20T11:46:31.517Z,97.70
2023-01-20T11:49:13.233Z,98.00
2023-01-20T11:51:52.077Z,98.20
2023-01-20T11:54:22.743Z,98.10
2023-01-20T11:56:54.399Z,97.90
2023-01-20T11:59:30.921Z,97.80
2023-01-20T12:02:00.781Z,97.60
2023-01-20T12:05:06.905Z,97.50
2023-01-20T12:07:44.459Z,97.50
2023-01-20T12:10:30.242Z,97.50
2023-01-20T12:13:16.159Z,97.30
2023-01-20T12:15:52.792Z,97.30
2023-01-20T12:18:34.929Z,96.90
2023-01-20T12:21:19.833Z,96.70
2023-01-20T12:24:03.815Z,96.80
2023-01-20T12:26:35.191Z,96.70
2023-01-20T12:29:24.437Z,96.80
2023-01-20T12:31:51.420Z,96.70
2023-01-20T12:34:29.580Z,96.80
2023-01-20T12:37:11.592Z,96.10
2023-01-20T12:40:16.285Z,96.00
2023-01-20T12:43:05.151Z,95.70
2023-01-20T12:45:44.777Z,95.70
2023-01-20T12:48:32.765Z,95.60
2023-01-20T12:51:09.393Z,95.80
2023-01-20T12:54:03.569Z,95.80
2023-01-20T12:56:54.415Z,95.60
2023-01-20T12:59:39.511Z,95.90
2023-01-20T13:02:21.188Z,95.80
2023-01-20T13:05:20.398Z,95.90
2023-01-20T13:07:47.051Z,95.90
2023-01-20T13:10:29.200Z,96.20
2023-01-20T13:13:12.376Z,96.20
2023-01-20T13:15:45.882Z,96.50
2023-01-20T13:18:18.422Z,96.80
2023-01-20T13:20:46.729Z,96.60
2023-01-20T13:23:21.913Z,96.30
2023-01-20T13:25:49.237Z,96.10
2023-01-20T13:28:24.866Z,96.20
2023-01-20T13:30:54.925Z,96.40
2023-01-20T13:33:30.045Z,96.10
2023-01-20T13:35:59.940Z,96.00
2023-01-20T13:38:33.101Z,96.30
2023-01-20T13:41:03.358Z,96.50
2023-01-20T13:43:33.134Z,96.50
2023-01-20T13:46:05.818Z,95.80
2023-01-20T13:48:34.132Z,95.80
2023-01-20T13:51:15.911Z,95.80
2023-01-20T13:53:43.306Z,96.10
2023-01-20T13:56:32.877Z,96.20
2023-01-20T13:58:59.551Z,96.30
2023-01-20T14:01:27.807Z,96.20
2023-01-20T14:04:06.632Z,96.30
2023-01-20T14:06:35.611Z,96.40
2023-01-20T14:09:04.302Z,96.30
2023-01-20T14:11:31.347Z,96.30
2023-01-20T14:14:06.749Z,96.40
2023-01-20T14:16:37.982Z,96.30
2023-01-20T14:19:34.429Z,96.30
2023-01-20T14:22:19.820Z,96.20
2023-01-20T14:24:49.592Z,96.30
2023-01-20T14:27:27.073Z,96.30
2023-01-20T14:29:55.922Z,96.30
2023-01-20T14:32:26.382Z,96.30
2023-01-20T14:34:53.870Z,96.30
2023-01-20T14:37:34.338Z,96.30
2023-01-20T14:40:07.729Z,96.20
2023-01-20T14:42:34.716Z,96.30
2023-01-20T14:45:01.610Z,96.30
2023-01-20T14:47:31.937Z,95.90
2023-01-20T14:49:58.907Z,95.90
2023-01-20T14:52:32.163Z,95.80
2023-01-20T14:54:58.982Z,95.50
2023-01-20T14:57:31.188Z,95.60
2023-01-20T15:00:26.102Z,95.90
2023-01-20T15:03:21.463Z,96.00
2023-01-20T15:05:58.194Z,96.00
2023-01-20T15:08:56.972Z,96.00
2023-01-20T15:11:31.084Z,95.90
2023-01-20T15:14:00.889Z,95.90
2023-01-20T15:16:44.686Z,96.00
2023-01-20T15:19:17.289Z,96.10
2023-01-20T15:21:58.006Z,96.00
2023-01-20T15:24:30.709Z,96.00
2023-01-20T15:27:03.788Z,95.90
2023-01-20T15:29:36.833Z,95.90
2023-01-20T15:32:11.789Z,95.90
2023-01-20T15:34:38.765Z,95.90
2023-01-20T15:37:15.497Z,95.90
2023-01-20T15:39:42.153Z,95.90
2023-01-20T15:42:11.936Z,95.90
2023-01-20T15:44:38.683Z,95.70
2023-01-20T15:47:33.131Z,95.70
2023-01-20T15:49:59.854Z,95.80
2023-01-20T15:52:26.730Z,95.70
2023-01-20T15:54:53.400Z,95.80
2023-01-20T15:57:20.139Z,95.70
2023-01-20T15:59:49.529Z,95.80
2023-01-20T16:02:21.577Z,95.80
2023-01-20T16:04:48.186Z,95.60
2023-01-20T16:07:17.513Z,95.60
2023-01-20T16:09:44.722Z,95.60
2023-01-20T16:12:16.358Z,95.50
2023-01-20T16:14:44.105Z,95.40
2023-01-20T16:17:19.175Z,95.50
2023-01-20T16:19:45.934Z,95.50
2023-01-20T16:22:13.579Z,95.40
2023-01-20T16:24:41.304Z,95.30
2023-01-20T16:27:21.168Z,95.20
2023-01-20T16:29:49.136Z,95.40
2023-01-20T16:32:18.177Z,95.30
2023-01-20T16:34:46.729Z,95.30
2023-01-20T16:37:14.457Z,95.30
2023-01-20T16:39:41.331Z,95.30
2023-01-20T16:42:11.957Z,95.20
2023-01-20T16:44:38.988Z,95.00
2023-01-20T16:47:06.530Z,95.00
2023-01-20T16:49:33.220Z,95.20
2023-01-20T16:51:59.959Z,95.30
2023-01-20T16:54:26.642Z,95.40
2023-01-20T16:56:53.323Z,95.30
2023-01-20T16:59:20.072Z,95.00
2023-01-20T17:01:49.812Z,94.80
2023-01-20T17:04:16.696Z,95.00
2023-01-20T17:06:43.467Z,95.00
2023-01-20T17:09:10.831Z,95.30
2023-01-20T17:11:38.980Z,95.20
2023-01-20T17:14:07.440Z,95.20
2023-01-20T17:16:34.524Z,95.50
2023-01-20T17:19:06.913Z,95.60
2023-01-20T17:21:36.886Z,95.40
2023-01-20T17:24:05.275Z,95.20
2023-01-20T17:26:32.459Z,95.40
2023-01-20T17:29:04.551Z,95.20
2023-01-20T17:31:35.363Z,95.40
2023-01-20T17:34:03.733Z,95.60
2023-01-20T17:36:34.240Z,95.40
2023-01-20T17:39:02.016Z,95.40
2023-01-20T17:41:28.917Z,95.60
2023-01-20T17:43:55.615Z,95.40
2023-01-20T17:46:30.264Z,95.60
2023-01-20T17:48:58.608Z,95.60
2023-01-20T17:51:28.063Z,95.50
2023-01-20T17:53:56.769Z,95.40
2023-01-20T17:56:24.121Z,95.40
2023-01-20T17:58:51.185Z,95.40
2023-01-20T18:01:23.265Z,95.30
2023-01-20T18:03:52.819Z,95.20
2023-01-20T18:06:21.108Z,95.40
2023-01-20T18:08:53.657Z,95.60
2023-01-20T18:11:22.863Z,95.90
2023-01-20T18:13:51.559Z,95.80
2023-01-20T18:16:20.717Z,95.90
2023-01-20T18:18:48.947Z,95.90
2023-01-20T18:21:21.702Z,95.90
2023-01-20T18:23:50.018Z,95.70
2023-01-20T18:26:19.655Z,95.80
2023-01-20T18:28:49.072Z,95.80
2023-01-20T18:31:19.193Z,95.50
2023-01-20T18:34:12.845Z,95.70
2023-01-20T18:36:41.950Z,95.80
2023-01-20T18:39:20.464Z,95.60
2023-01-20T18:41:48.336Z,95.80
2023-01-20T18:44:15.589Z,96.00
2023-01-20T18:46:42.573Z,96.30
2023-01-20T18:49:15.732Z,96.50
2023-01-20T18:51:43.082Z,96.60
2023-01-20T18:54:18.315Z,96.50
2023-01-20T18:56:45.362Z,96.30
2023-01-20T18:59:13.128Z,96.30
2023-01-20T19:01:40.933Z,96.10
2023-01-20T19:04:11.839Z,95.80
2023-01-20T19:06:41.268Z,95.80
2023-01-20T19:09:08.583Z,95.80
2023-01-20T19:11:41.957Z,95.70
2023-01-20T19:14:13.576Z,95.50
2023-01-20T19:16:48.832Z,95.60
2023-01-20T19:19:17.490Z,95.60
2023-01-20T19:21:44.284Z,95.40
2023-01-20T19:24:17.593Z,95.60
2023-01-20T19:26:44.330Z,95.60
2023-01-20T19:29:15.579Z,95.30
2023-01-20T19:31:42.596Z,95.30
2023-01-20T19:34:10.271Z,95.40
2023-01-20T19:36:37.729Z,95.60
2023-01-20T19:39:05.646Z,95.40
2023-01-20T19:41:34.313Z,95.30
2023-01-20T19:44:07.323Z,94.80
2023-01-20T19:46:38.613Z,94.60
2023-01-20T19:49:06.188Z,94.60
2023-01-20T19:51:33.130Z,94.60
2023-01-20T19:54:03.079Z,94.70
2023-01-20T19:56:32.357Z,94.90
2023-01-20T19:59:00.785Z,95.20
2023-01-20T20:01:31.638Z,95.10
2023-01-20T20:04:03.457Z,94.60
2023-01-20T20:06:35.801Z,94.60
2023-01-20T20:09:11.821Z,94.50
2023-01-20T20:11:39.071Z,94.40
2023-01-20T20:14:07.634Z,94.20
2023-01-20T20:16:36.677Z,94.40
2023-01-20T20:19:04.549Z,94.60
2023-01-20T20:21:31.253Z,94.40
2023-01-20T20:24:00.185Z,94.20
2023-01-20T20:26:29.948Z,94.10
2023-01-20T20:28:58.897Z,94.40
2023-01-20T20:31:29.592Z,94.60
2023-01-20T20:34:00.826Z,94.20
2023-01-20T20:36:29.617Z,94.00
2023-01-20T20:38:58.400Z,94.00
2023-01-20T20:41:28.738Z,94.10
2023-01-20T20:43:55.608Z,93.90
2023-01-20T20:46:22.500Z,94.00
2023-01-20T20:48:49.189Z,94.20
2023-01-20T20:51:16.954Z,94.20
2023-01-20T20:53:44.261Z,94.10
2023-01-20T20:56:14.173Z,94.70
2023-01-20T20:58:55.530Z,94.30
2023-01-20T21:01:26.907Z,94.20
2023-01-20T21:03:54.056Z,94.00
2023-01-20T21:06:22.620Z,94.10
2023-01-20T21:08:49.544Z,94.10
2023-01-20T21:11:16.217Z,93.70
2023-01-20T21:13:44.341Z,93.60
2023-01-20T21:16:15.469Z,94.00
2023-01-20T21:18:42.499Z,94.00
2023-01-20T21:21:13.633Z,93.80
2023-01-20T21:23:41.020Z,93.90
2023-01-20T21:26:12.436Z,93.90
2023-01-20T21:28:40.737Z,94.00
2023-01-20T21:31:19.145Z,93.80
2023-01-20T21:33:46.561Z,93.80
2023-01-20T21:36:13.455Z,93.60
2023-01-20T21:38:42.940Z,93.50
2023-01-20T21:41:10.764Z,93.40
2023-01-20T21:43:58.444Z,93.40
2023-01-20T21:46:27.058Z,93.50
2023-01-20T21:49:12.251Z,93.70
2023-01-20T21:51:57.515Z,93.80
2023-01-20T21:54:31.579Z,93.80
2023-01-20T21:56:59.688Z,94.10
2023-01-20T21:59:26.891Z,93.90
2023-01-20T22:01:53.846Z,93.60
2023-01-20T22:04:20.556Z,94.20
2023-01-20T22:06:47.219Z,93.80
2023-01-20T22:09:13.958Z,93.70
2023-01-20T22:11:40.965Z,94.00
2023-01-20T22:14:08.869Z,94.00
2023-01-20T22:16:35.567Z,94.60
2023-01-20T22:19:03.374Z,94.80
2023-01-20T22:21:30.054Z,94.60
2023-01-20T22:23:56.748Z,94.50
2023-01-20T22:26:23.527Z,94.60
2023-01-20T22:28:50.208Z,94.30
2023-01-20T22:31:21.688Z,94.60
2023-01-20T22:33:52.818Z,94.10
2023-01-20T22:36:21.176Z,94.50
2023-01-20T22:38:49.657Z,94.70
2023-01-20T22:41:16.871Z,94.40
2023-01-20T22:43:48.267Z,95.10
2023-01-20T22:46:17.270Z,94.50
2023-01-20T22:48:44.627Z,94.80
2023-01-20T22:51:19.694Z,94.60
2023-01-20T22:53:47.080Z,94.80
2023-01-20T22:56:19.355Z,95.10
2023-01-20T22:58:46.790Z,94.70
2023-01-20T23:01:15.957Z,94.50
2023-01-20T23:03:43.563Z,94.80
2023-01-20T23:06:11.139Z,94.30
2023-01-20T23:08:38.868Z,94.20
2023-01-20T23:11:08.933Z,94.30
2023-01-20T23:13:36.522Z,94.10
2023-01-20T23:16:04.659Z,94.10
2023-01-20T23:18:32.104Z,94.10
2023-01-20T23:20:59.292Z,94.40
2023-01-20T23:23:27.594Z,94.80
2023-01-20T23:26:05.629Z,94.60
2023-01-20T23:28:33.166Z,94.50
2023-01-20T23:31:08.400Z,94.30
2023-01-20T23:33:35.303Z,94.10
2023-01-20T23:36:09.579Z,94.00
2023-01-20T23:38:36.374Z,93.90
2023-01-20T23:41:03.840Z,93.70
2023-01-20T23:43:31.970Z,93.70
2023-01-20T23:46:01.252Z,93.70
2023-01-20T23:48:29.317Z,93.60
2023-01-20T23:50:56.530Z,93.70
2023-01-20T23:53:23.552Z,93.70
2023-01-20T23:55:50.256Z,93.90
2023-01-20T23:58:17.027Z,93.90
